createdAt,value
2019-05-10T00:01:14.525Z,100462.84
2019-05-10T00:04:04.651Z,100456.91
2019-05-10T00:06:54.108Z,100462.02
2019-05-10T00:09:24.708Z,100461.81
2019-05-10T00:11:57.626Z,100464.72
2019-05-10T00:14:36.468Z,100472.88
2019-05-10T00:17:09.493Z,100471.52
2019-05-10T00:19:41.008Z,100465.57
2019-05-10T00:22:12.357Z,100462.02
2019-05-10T00:24:43.808Z,100465.91
2019-05-10T00:27:15.838Z,100464.73
2019-05-10T00:29:47.514Z,100462.84
2019-05-10T00:32:18.980Z,100469.14
2019-05-10T00:34:50.468Z,100460.47
2019-05-10T00:37:22.325Z,100462.69
2019-05-10T00:39:53.707Z,100462.16
2019-05-10T00:42:25.017Z,100459.62
2019-05-10T00:44:56.366Z,100458.78
2019-05-10T00:47:27.681Z,100460.63
2019-05-10T00:50:00.170Z,100460.30
2019-05-10T00:52:31.523Z,100458.25
2019-05-10T00:55:16.731Z,100453.83
2019-05-10T00:57:35.872Z,100444.66
2019-05-10T01:00:08.301Z,100444.33
2019-05-10T01:02:39.523Z,100446.70
2019-05-10T01:05:10.919Z,100454.67
2019-05-10T01:07:42.376Z,100453.95
2019-05-10T01:10:14.604Z,100446.16
2019-05-10T01:12:45.768Z,100443.09
2019-05-10T01:15:17.712Z,100439.19
2019-05-10T01:17:49.007Z,100435.59
2019-05-10T01:20:20.714Z,100438.67
2019-05-10T01:22:52.066Z,100452.45
2019-05-10T01:25:34.546Z,100453.28
2019-05-10T01:27:56.588Z,100459.05
2019-05-10T01:30:28.051Z,100447.42
2019-05-10T01:32:59.545Z,100447.81
2019-05-10T01:35:31.267Z,100452.84
2019-05-10T01:38:03.815Z,100451.49
2019-05-10T01:40:35.233Z,100454.39
2019-05-10T01:43:06.520Z,100454.37
2019-05-10T01:45:37.822Z,100462.20
2019-05-10T01:48:09.086Z,100465.42
2019-05-10T01:50:40.433Z,100467.14
2019-05-10T01:53:12.785Z,100472.06
2019-05-10T01:55:52.114Z,100485.45
2019-05-10T01:58:17.303Z,100487.33
2019-05-10T02:00:48.683Z,100485.88
2019-05-10T02:03:20.362Z,100475.80
2019-05-10T02:05:51.752Z,100482.53
2019-05-10T02:08:23.242Z,100480.19
2019-05-10T02:10:54.557Z,100484.61
2019-05-10T02:13:25.956Z,100486.98
2019-05-10T02:15:57.192Z,100479.14
2019-05-10T02:18:28.727Z,100474.23
2019-05-10T02:21:00.276Z,100485.39
2019-05-10T02:23:31.644Z,100493.55
2019-05-10T02:26:09.625Z,100505.81
2019-05-10T02:28:36.078Z,100505.29
2019-05-10T02:31:07.533Z,100504.25
2019-05-10T02:33:38.891Z,100512.27
2019-05-10T02:36:10.254Z,100512.98
2019-05-10T02:38:41.528Z,100525.59
2019-05-10T02:41:12.924Z,100535.11
2019-05-10T02:43:44.371Z,100539.05
2019-05-10T02:46:15.707Z,100533.16
2019-05-10T02:48:47.021Z,100536.33
2019-05-10T02:51:18.344Z,100536.19
2019-05-10T02:53:49.660Z,100534.77
2019-05-10T02:56:30.265Z,100533.15
2019-05-10T02:58:56.935Z,100526.23
2019-05-10T03:01:30.055Z,100527.66
2019-05-10T03:04:02.509Z,100535.00
2019-05-10T03:06:38.408Z,100541.53
2019-05-10T03:09:10.848Z,100547.12
2019-05-10T03:11:50.004Z,100546.02
2019-05-10T03:14:22.113Z,100540.17
2019-05-10T03:16:53.560Z,100545.30
2019-05-10T03:19:24.970Z,100554.48
2019-05-10T03:22:09.410Z,100559.73
2019-05-10T03:24:41.034Z,100555.95
2019-05-10T03:27:12.427Z,100566.84
2019-05-10T03:29:43.617Z,100564.95
2019-05-10T03:32:14.937Z,100567.89
2019-05-10T03:34:47.418Z,100564.62
2019-05-10T03:37:19.091Z,100561.44
2019-05-10T03:39:50.384Z,100566.59
2019-05-10T03:42:21.773Z,100566.30
2019-05-10T03:44:53.069Z,100571.38
2019-05-10T03:47:24.420Z,100561.58
2019-05-10T03:49:55.649Z,100568.87
2019-05-10T03:52:26.844Z,100566.13
2019-05-10T03:54:58.157Z,100564.75
2019-05-10T03:57:30.641Z,100565.25
2019-05-10T04:00:01.985Z,100568.18
2019-05-10T04:02:33.424Z,100570.05
2019-05-10T04:05:06.703Z,100568.89
2019-05-10T04:07:38.065Z,100566.13
2019-05-10T04:10:09.545Z,100566.34
2019-05-10T04:12:40.997Z,100568.72
2019-05-10T04:15:12.336Z,100561.08
2019-05-10T04:17:43.709Z,100561.63
2019-05-10T04:20:15.055Z,100561.97
2019-05-10T04:22:46.360Z,100569.09
2019-05-10T04:25:17.878Z,100571.14
2019-05-10T04:27:49.306Z,100570.48
2019-05-10T04:30:20.746Z,100564.89
2019-05-10T04:32:52.075Z,100571.02
2019-05-10T04:35:23.460Z,100564.72
2019-05-10T04:37:54.906Z,100573.92
2019-05-10T04:40:26.169Z,100578.97
2019-05-10T04:42:57.492Z,100578.14
2019-05-10T04:45:28.908Z,100579.16
2019-05-10T04:48:00.273Z,100580.55
2019-05-10T04:50:31.572Z,100582.89
2019-05-10T04:53:02.898Z,100579.17
2019-05-10T04:55:36.108Z,100581.41
2019-05-10T04:58:07.541Z,100582.92
2019-05-10T05:00:38.767Z,100590.41
2019-05-10T05:03:10.290Z,100586.84
2019-05-10T05:05:41.620Z,100585.34
2019-05-10T05:08:13.041Z,100580.91
2019-05-10T05:10:44.487Z,100584.45
2019-05-10T05:13:15.924Z,100581.59
2019-05-10T05:15:47.725Z,100591.91
2019-05-10T05:18:19.091Z,100597.58
2019-05-10T05:20:50.345Z,100595.05
2019-05-10T05:23:21.640Z,100604.52
2019-05-10T05:25:52.886Z,100602.86
2019-05-10T05:28:24.733Z,100603.52
2019-05-10T05:30:56.304Z,100600.93
2019-05-10T05:33:27.669Z,100600.89
2019-05-10T05:36:02.130Z,100607.78
2019-05-10T05:38:32.351Z,100612.08
2019-05-10T05:41:03.604Z,100609.88
2019-05-10T05:43:35.021Z,100607.00
2019-05-10T05:46:06.440Z,100606.66
2019-05-10T05:48:40.301Z,100598.72
2019-05-10T05:51:10.983Z,100596.19
2019-05-10T05:53:44.653Z,100580.59
2019-05-10T05:56:15.443Z,100578.36
2019-05-10T05:58:47.082Z,100580.96
2019-05-10T06:01:26.357Z,100576.23
2019-05-10T06:03:51.791Z,100571.95
2019-05-10T06:06:24.331Z,100564.70
2019-05-10T06:08:59.763Z,100565.53
2019-05-10T06:11:35.622Z,100564.25
2019-05-10T06:14:10.422Z,100561.97
2019-05-10T06:16:36.803Z,100566.48
2019-05-10T06:19:08.035Z,100576.41
2019-05-10T06:21:39.327Z,100569.72
2019-05-10T06:24:13.289Z,100576.77
2019-05-10T06:26:43.635Z,100572.35
2019-05-10T06:29:17.650Z,100568.62
2019-05-10T06:31:48.544Z,100559.53
2019-05-10T06:34:19.934Z,100567.00
2019-05-10T06:36:52.392Z,100576.38
2019-05-10T06:39:23.719Z,100576.83
2019-05-10T06:41:56.439Z,100576.08
2019-05-10T06:44:31.433Z,100569.66
2019-05-10T06:47:02.058Z,100572.31
2019-05-10T06:49:34.326Z,100576.05
2019-05-10T06:52:05.665Z,100571.42
2019-05-10T06:54:37.114Z,100574.08
2019-05-10T06:57:11.152Z,100555.05
2019-05-10T06:59:41.181Z,100563.28
2019-05-10T07:02:12.497Z,100561.88
2019-05-10T07:04:43.733Z,100567.38
2019-05-10T07:07:22.403Z,100578.95
2019-05-10T07:10:04.219Z,100583.29
2019-05-10T07:12:21.305Z,100586.80
2019-05-10T07:14:52.638Z,100585.92
2019-05-10T07:17:24.168Z,100586.97
2019-05-10T07:19:55.530Z,100580.83
2019-05-10T07:22:28.994Z,100571.38
2019-05-10T07:25:04.157Z,100576.80
2019-05-10T07:27:36.670Z,100572.31
2019-05-10T07:30:09.009Z,100570.84
2019-05-10T07:32:40.255Z,100575.82
2019-05-10T07:35:12.302Z,100577.69
2019-05-10T07:37:47.758Z,100574.57
2019-05-10T07:40:17.045Z,100571.56
2019-05-10T07:42:48.628Z,100573.70
2019-05-10T07:45:25.749Z,100571.20
2019-05-10T07:47:53.149Z,100569.03
2019-05-10T07:50:24.438Z,100574.95
2019-05-10T07:52:55.791Z,100578.72
2019-05-10T07:55:29.738Z,100575.98
2019-05-10T07:58:04.955Z,100576.16
2019-05-10T08:00:37.988Z,100573.71
2019-05-10T08:03:13.216Z,100573.11
2019-05-10T08:05:39.304Z,100567.95
2019-05-10T08:08:10.731Z,100567.30
2019-05-10T08:10:41.993Z,100569.33
2019-05-10T08:13:15.446Z,100570.03
2019-05-10T08:15:46.204Z,100573.09
2019-05-10T08:18:23.554Z,100578.20
2019-05-10T08:20:58.250Z,100567.77
2019-05-10T08:23:27.791Z,100570.39
2019-05-10T08:25:56.599Z,100568.66
2019-05-10T08:28:36.113Z,100566.72
2019-05-10T08:31:02.640Z,100564.45
2019-05-10T08:33:33.997Z,100564.09
2019-05-10T08:36:05.747Z,100562.42
2019-05-10T08:38:39.734Z,100560.51
2019-05-10T08:41:14.335Z,100556.52
2019-05-10T08:43:44.451Z,100555.49
2019-05-10T08:46:19.487Z,100567.09
2019-05-10T08:48:51.323Z,100565.75
2019-05-10T08:51:22.760Z,100562.47
2019-05-10T08:53:58.116Z,100559.41
2019-05-10T08:56:27.366Z,100562.20
2019-05-10T08:58:58.633Z,100564.17
2019-05-10T09:01:31.393Z,100565.02
2019-05-10T09:04:06.798Z,100565.14
2019-05-10T09:06:36.044Z,100555.83
2019-05-10T09:09:08.777Z,100560.14
2019-05-10T09:11:44.047Z,100556.45
2019-05-10T09:14:19.826Z,100550.70
2019-05-10T09:16:56.377Z,100551.17
2019-05-10T09:19:27.743Z,100548.72
2019-05-10T09:21:55.025Z,100554.63
2019-05-10T09:24:26.090Z,100552.41
2019-05-10T09:26:57.828Z,100543.30
2019-05-10T09:29:37.199Z,100546.52
2019-05-10T09:32:06.638Z,100538.92
2019-05-10T09:34:38.148Z,100527.00
2019-05-10T09:37:14.519Z,100524.70
2019-05-10T09:39:42.723Z,100522.56
2019-05-10T09:42:25.137Z,100514.30
2019-05-10T09:44:47.071Z,100522.16
2019-05-10T09:47:18.417Z,100521.25
2019-05-10T09:49:56.422Z,100516.85
2019-05-10T09:52:25.004Z,100521.59
2019-05-10T09:54:57.723Z,100524.86
2019-05-10T09:57:32.093Z,100523.87
2019-05-10T10:00:02.323Z,100508.14
2019-05-10T10:02:34.089Z,100516.41
2019-05-10T10:05:07.626Z,100516.44
2019-05-10T10:07:39.113Z,100509.23
2019-05-10T10:10:12.802Z,100505.81
2019-05-10T10:12:47.540Z,100509.39
2019-05-10T10:15:28.958Z,100513.24
2019-05-10T10:17:51.992Z,100513.06
2019-05-10T10:20:23.421Z,100505.77
2019-05-10T10:22:55.899Z,100506.52
2019-05-10T10:25:29.925Z,100505.09
2019-05-10T10:28:00.236Z,100494.55
2019-05-10T10:30:32.010Z,100500.46
2019-05-10T10:33:05.881Z,100486.12
2019-05-10T10:35:37.792Z,100491.00
2019-05-10T10:38:10.555Z,100491.79
2019-05-10T10:40:44.898Z,100488.76
2019-05-10T10:43:15.083Z,100489.98
2019-05-10T10:45:46.534Z,100486.66
2019-05-10T10:48:18.058Z,100489.09
2019-05-10T10:50:53.899Z,100484.33
2019-05-10T10:53:22.628Z,100491.83
2019-05-10T10:55:56.712Z,100493.30
2019-05-10T10:58:27.636Z,100490.05
2019-05-10T11:01:00.144Z,100487.78
2019-05-10T11:03:32.583Z,100506.28
2019-05-10T11:06:04.083Z,100496.33
2019-05-10T11:08:35.539Z,100492.47
2019-05-10T11:11:07.001Z,100488.20
2019-05-10T11:13:43.768Z,100486.48
2019-05-10T11:16:15.548Z,100482.75
2019-05-10T11:18:45.666Z,100482.93
2019-05-10T11:21:17.105Z,100484.09
2019-05-10T11:23:48.572Z,100476.36
2019-05-10T11:26:21.761Z,100472.02
2019-05-10T11:28:53.222Z,100473.02
2019-05-10T11:31:24.768Z,100465.66
2019-05-10T11:33:58.735Z,100477.68
2019-05-10T11:36:31.234Z,100477.84
2019-05-10T11:39:05.740Z,100473.55
2019-05-10T11:41:36.849Z,100473.87
2019-05-10T11:44:11.210Z,100467.14
2019-05-10T11:46:41.731Z,100470.67
2019-05-10T11:49:13.114Z,100472.78
2019-05-10T11:51:47.884Z,100473.16
2019-05-10T11:54:17.891Z,100471.23
2019-05-10T11:56:51.936Z,100466.91
2019-05-10T11:59:27.466Z,100455.40
2019-05-10T12:01:59.624Z,100455.88
2019-05-10T12:04:36.260Z,100456.64
2019-05-10T12:07:02.786Z,100460.47
2019-05-10T12:09:33.917Z,100455.48
2019-05-10T12:12:05.473Z,100465.30
2019-05-10T12:14:36.854Z,100456.38
2019-05-10T12:17:08.267Z,100451.14
2019-05-10T12:19:47.756Z,100453.49
2019-05-10T12:22:15.939Z,100450.64
2019-05-10T12:25:04.792Z,100453.77
2019-05-10T12:27:28.530Z,100450.69
2019-05-10T12:29:59.689Z,100442.51
2019-05-10T12:32:26.927Z,100439.08
2019-05-10T12:34:58.496Z,100434.40
2019-05-10T12:37:30.834Z,100427.55
2019-05-10T12:40:09.930Z,100423.22
2019-05-10T12:42:34.929Z,100417.98
2019-05-10T12:45:07.954Z,100415.77
2019-05-10T12:47:41.435Z,100411.27
2019-05-10T12:50:12.989Z,100418.22
2019-05-10T12:52:50.351Z,100411.02
2019-05-10T12:55:17.420Z,100407.00
2019-05-10T12:57:48.836Z,100411.71
2019-05-10T13:00:20.245Z,100410.05
2019-05-10T13:02:53.381Z,100409.08
2019-05-10T13:05:32.119Z,100403.20
2019-05-10T13:08:01.623Z,100402.53
2019-05-10T13:10:37.127Z,100402.64
2019-05-10T13:13:06.244Z,100397.27
2019-05-10T13:15:37.671Z,100395.67
2019-05-10T13:18:09.105Z,100402.64
2019-05-10T13:20:40.594Z,100406.80
2019-05-10T13:23:16.009Z,100405.10
2019-05-10T13:25:45.623Z,100394.58
2019-05-10T13:28:16.993Z,100395.55
2019-05-10T13:30:48.420Z,100395.19
2019-05-10T13:33:28.666Z,100392.58
2019-05-10T13:35:56.722Z,100391.05
2019-05-10T13:38:25.967Z,100386.28
2019-05-10T13:40:57.375Z,100384.93
2019-05-10T13:43:28.702Z,100393.89
2019-05-10T13:46:00.038Z,100392.91
2019-05-10T13:48:31.373Z,100386.41
2019-05-10T13:51:02.653Z,100388.58
2019-05-10T13:53:34.063Z,100383.06
2019-05-10T13:56:05.385Z,100381.72
2019-05-10T13:58:36.934Z,100376.13
2019-05-10T14:01:13.264Z,100378.30
2019-05-10T14:03:44.350Z,100381.69
2019-05-10T14:06:14.362Z,100392.70
2019-05-10T14:08:48.205Z,100387.64
2019-05-10T14:11:20.024Z,100388.51
2019-05-10T14:13:51.466Z,100387.36
2019-05-10T14:16:22.863Z,100390.56
2019-05-10T14:18:54.101Z,100387.28
2019-05-10T14:21:25.453Z,100384.47
2019-05-10T14:23:57.173Z,100378.77
2019-05-10T14:26:28.631Z,100377.45
2019-05-10T14:28:59.917Z,100378.04
2019-05-10T14:31:31.328Z,100381.19
2019-05-10T14:34:18.262Z,100373.19
2019-05-10T14:36:41.225Z,100375.94
2019-05-10T14:39:08.861Z,100375.45
2019-05-10T14:41:45.327Z,100378.39
2019-05-10T14:44:14.106Z,100383.29
2019-05-10T14:46:45.491Z,100382.83
2019-05-10T14:49:16.902Z,100386.09
2019-05-10T14:51:58.559Z,100394.85
2019-05-10T14:54:21.477Z,100393.31
2019-05-10T14:56:54.122Z,100394.30
2019-05-10T14:59:25.507Z,100392.59
2019-05-10T15:01:56.765Z,100391.25
2019-05-10T15:04:44.494Z,100389.84
2019-05-10T15:07:01.080Z,100379.53
2019-05-10T15:09:32.510Z,100388.03
2019-05-10T15:12:03.833Z,100387.14
2019-05-10T15:14:35.305Z,100380.67
2019-05-10T15:17:07.816Z,100383.86
2019-05-10T15:19:39.148Z,100392.47
2019-05-10T15:22:10.580Z,100390.44
2019-05-10T15:24:41.908Z,100388.35
2019-05-10T15:27:16.286Z,100397.80
2019-05-10T15:29:46.403Z,100397.30
2019-05-10T15:32:17.719Z,100388.56
2019-05-10T15:35:05.650Z,100388.52
2019-05-10T15:37:21.944Z,100390.62
2019-05-10T15:39:53.315Z,100391.75
2019-05-10T15:42:24.763Z,100386.39
2019-05-10T15:44:56.009Z,100390.59
2019-05-10T15:47:27.209Z,100384.95
2019-05-10T15:50:00.017Z,100388.94
2019-05-10T15:52:31.562Z,100380.63
2019-05-10T15:55:03.105Z,100375.63
2019-05-10T15:57:34.730Z,100381.58
2019-05-10T16:00:06.849Z,100375.13
2019-05-10T16:02:38.159Z,100377.66
2019-05-10T16:05:23.884Z,100373.95
2019-05-10T16:07:46.561Z,100369.36
2019-05-10T16:10:16.862Z,100368.06
2019-05-10T16:12:48.211Z,100364.75
2019-05-10T16:15:21.193Z,100364.66
2019-05-10T16:17:59.540Z,100364.92
2019-05-10T16:20:31.758Z,100363.45
2019-05-10T16:23:02.746Z,100359.67
2019-05-10T16:25:41.508Z,100365.50
2019-05-10T16:28:05.991Z,100365.91
2019-05-10T16:30:37.414Z,100369.41
2019-05-10T16:33:09.852Z,100372.19
2019-05-10T16:35:44.170Z,100370.95
2019-05-10T16:38:14.997Z,100372.94
2019-05-10T16:40:57.106Z,100368.78
2019-05-10T16:43:24.266Z,100365.97
2019-05-10T16:45:52.441Z,100370.34
2019-05-10T16:48:23.767Z,100371.66
2019-05-10T16:50:55.435Z,100371.58
2019-05-10T16:53:26.722Z,100367.33
2019-05-10T16:55:58.106Z,100362.43
2019-05-10T16:58:29.420Z,100363.66
2019-05-10T17:01:01.032Z,100373.59
2019-05-10T17:03:32.501Z,100374.53
2019-05-10T17:06:05.416Z,100369.27
2019-05-10T17:08:38.773Z,100371.30
2019-05-10T17:11:11.939Z,100371.45
2019-05-10T17:13:43.437Z,100374.82
2019-05-10T17:16:16.875Z,100376.86
2019-05-10T17:18:49.870Z,100375.09
2019-05-10T17:21:21.087Z,100375.32
2019-05-10T17:23:53.392Z,100379.65
2019-05-10T17:26:24.782Z,100385.98
2019-05-10T17:28:56.165Z,100388.77
2019-05-10T17:31:27.518Z,100383.53
2019-05-10T17:33:58.892Z,100392.26
2019-05-10T17:36:30.469Z,100391.09
2019-05-10T17:39:01.797Z,100388.58
2019-05-10T17:41:33.220Z,100379.58
2019-05-10T17:44:04.551Z,100386.07
2019-05-10T17:46:36.169Z,100391.05
2019-05-10T17:49:07.559Z,100386.28
2019-05-10T17:51:40.255Z,100390.55
2019-05-10T17:54:11.664Z,100384.95
2019-05-10T17:56:42.978Z,100385.64
2019-05-10T17:59:14.298Z,100389.73
2019-05-10T18:01:45.770Z,100388.92
2019-05-10T18:04:17.203Z,100387.56
2019-05-10T18:06:48.599Z,100382.12
2019-05-10T18:09:20.020Z,100388.08
2019-05-10T18:11:51.568Z,100383.15
2019-05-10T18:14:22.898Z,100384.84
2019-05-10T18:16:54.702Z,100386.73
2019-05-10T18:19:27.854Z,100391.57
2019-05-10T18:22:02.637Z,100381.01
2019-05-10T18:24:36.256Z,100383.73
2019-05-10T18:27:05.592Z,100389.87
2019-05-10T18:29:37.062Z,100383.73
2019-05-10T18:32:11.015Z,100385.49
2019-05-10T18:34:41.359Z,100380.20
2019-05-10T18:37:15.906Z,100381.08
2019-05-10T18:39:47.396Z,100377.67
2019-05-10T18:44:56.464Z,100382.84
2019-05-10T18:47:27.809Z,100385.05
2019-05-10T18:49:59.182Z,100386.13
2019-05-10T18:52:30.610Z,100384.58
2019-05-10T18:55:02.063Z,100382.87
2019-05-10T18:57:33.608Z,100387.86
2019-05-10T19:00:07.072Z,100382.95
2019-05-10T19:02:38.510Z,100382.31
2019-05-10T19:05:13.413Z,100386.63
2019-05-10T19:07:42.728Z,100382.72
2019-05-10T19:10:14.162Z,100383.41
2019-05-10T19:12:45.880Z,100387.44
2019-05-10T19:15:17.453Z,100384.38
2019-05-10T19:17:48.862Z,100390.91
2019-05-10T19:20:20.351Z,100392.27
2019-05-10T19:22:51.586Z,100396.64
2019-05-10T19:25:22.976Z,100397.53
2019-05-10T19:27:54.325Z,100393.64
2019-05-10T19:30:25.571Z,100394.00
2019-05-10T19:32:58.119Z,100399.84
2019-05-10T19:35:35.438Z,100394.39
2019-05-10T19:38:03.157Z,100390.30
2019-05-10T19:40:34.615Z,100388.25
2019-05-10T19:43:06.085Z,100394.05
2019-05-10T19:45:37.393Z,100398.38
2019-05-10T19:48:08.990Z,100400.42
2019-05-10T19:50:40.439Z,100402.43
2019-05-10T19:53:11.925Z,100401.45
2019-05-10T19:55:43.544Z,100405.69
2019-05-10T19:58:14.866Z,100403.34
2019-05-10T20:00:46.256Z,100407.09
2019-05-10T20:03:17.682Z,100406.75
2019-05-10T20:05:49.065Z,100402.31
2019-05-10T20:08:20.387Z,100402.81
2019-05-10T20:10:51.833Z,100403.50
2019-05-10T20:13:23.063Z,100409.59
2019-05-10T20:15:54.433Z,100409.97
2019-05-10T20:18:25.739Z,100416.64
2019-05-10T20:20:57.061Z,100420.92
2019-05-10T20:23:28.472Z,100420.73
2019-05-10T20:25:59.782Z,100414.44
2019-05-10T20:28:31.191Z,100416.98
2019-05-10T20:31:02.629Z,100418.00
2019-05-10T20:33:34.128Z,100414.78
2019-05-10T20:36:05.507Z,100423.64
2019-05-10T20:38:37.866Z,100428.11
2019-05-10T20:41:09.254Z,100423.52
2019-05-10T20:43:40.562Z,100429.81
2019-05-10T20:46:12.073Z,100426.40
2019-05-10T20:48:43.542Z,100435.75
2019-05-10T20:51:14.875Z,100443.44
2019-05-10T20:53:48.211Z,100441.23
2019-05-10T20:56:18.951Z,100439.86
2019-05-10T20:58:49.969Z,100435.97
2019-05-10T21:01:21.376Z,100445.84
2019-05-10T21:03:52.805Z,100442.09
2019-05-10T21:06:24.101Z,100446.70
2019-05-10T21:08:55.445Z,100446.70
2019-05-10T21:11:26.871Z,100449.24
2019-05-10T21:13:58.259Z,100461.19
2019-05-10T21:16:29.713Z,100456.07
2019-05-10T21:19:01.227Z,100462.88
2019-05-10T21:21:32.989Z,100467.47
2019-05-10T21:24:04.561Z,100477.34
2019-05-10T21:26:35.989Z,100476.66
2019-05-10T21:29:07.398Z,100480.59
2019-05-10T21:31:38.796Z,100481.61
2019-05-10T21:34:10.455Z,100480.42
2019-05-10T21:36:41.930Z,100488.44
2019-05-10T21:39:13.354Z,100491.66
2019-05-10T21:41:44.599Z,100494.71
2019-05-10T21:44:16.038Z,100496.09
2019-05-10T21:46:47.422Z,100493.17
2019-05-10T21:49:18.853Z,100499.81
2019-05-10T21:51:50.194Z,100496.42
2019-05-10T21:54:21.568Z,100501.37
2019-05-10T21:56:52.874Z,100490.27
2019-05-10T21:59:24.085Z,100491.30
2019-05-10T22:01:55.557Z,100486.39
2019-05-10T22:04:27.035Z,100489.42
2019-05-10T22:06:58.438Z,100492.16
2019-05-10T22:09:29.816Z,100490.28
2019-05-10T22:12:01.275Z,100489.41
2019-05-10T22:14:32.638Z,100494.67
2019-05-10T22:17:04.065Z,100490.95
2019-05-10T22:19:35.424Z,100493.31
2019-05-10T22:22:06.788Z,100492.97
2019-05-10T22:24:38.165Z,100498.42
2019-05-10T22:27:09.989Z,100498.43
2019-05-10T22:29:41.378Z,100500.78
2019-05-10T22:32:12.793Z,100493.78
2019-05-10T22:34:44.053Z,100499.76
2019-05-10T22:37:15.272Z,100497.48
2019-05-10T22:39:46.394Z,100502.14
2019-05-10T22:42:17.769Z,100502.33
2019-05-10T22:44:49.161Z,100491.27
2019-05-10T22:47:20.214Z,100494.80
2019-05-10T22:49:51.488Z,100495.64
2019-05-10T22:52:22.794Z,100495.14
2019-05-10T22:54:54.026Z,100497.34
2019-05-10T22:57:25.189Z,100500.22
2019-05-10T22:59:56.466Z,100500.59
2019-05-10T23:02:27.688Z,100502.33
2019-05-10T23:04:59.018Z,100498.20
2019-05-10T23:07:30.175Z,100504.03
2019-05-10T23:10:01.583Z,100497.59
2019-05-10T23:12:33.035Z,100498.43
2019-05-10T23:15:06.180Z,100497.91
2019-05-10T23:17:37.447Z,100507.07
2019-05-10T23:20:08.712Z,100505.02
2019-05-10T23:22:40.652Z,100497.68
2019-05-10T23:25:11.892Z,100497.34
2019-05-10T23:27:43.038Z,100495.10
2019-05-10T23:30:15.281Z,100496.50
2019-05-10T23:32:46.711Z,100498.70
2019-05-10T23:35:18.260Z,100497.91
2019-05-10T23:37:49.505Z,100500.44
2019-05-10T23:40:20.853Z,100502.64
2019-05-10T23:42:52.154Z,100492.27
2019-05-10T23:45:23.345Z,100493.44
2019-05-10T23:47:54.535Z,100498.89
2019-05-10T23:50:25.728Z,100500.56
2019-05-10T23:52:57.008Z,100500.29
2019-05-10T23:55:28.331Z,100495.67
2019-05-10T23:57:59.454Z,100499.57
